• Join FlightAware (Why Join?)
  • Login
  • US Flag 
 
02:04AM EST


 

Airport Tracker/Info


-or-


 

Live Flight TrackerFlight Track Log ✈ CTA307 ✈ 25-Apr-2013 ✈ KPHX - KVGT

Flight Track Log - Related Links

Times and Time Zones

All times are in EDT time to prevent confusion due to time zone crossing. See the CTA307 flight status page for this flight to view local times or setup timezone preferences in your user account.

Time Position Orientation Groundspeed Altitude Reporting Facility
EDT Latitude Longitude Course Direction KTS MPH feet Rate Location/Type
07:30AM 33.4333 -111.9833 90° East 136 157 1,700  Level Phoenix TRACON
07:31AM 33.4333 -111.9667 90° East 129 148 2,300 780 Climbing Phoenix TRACON
07:32AM 33.4522 -111.9358 54° Northeast 146 168 2,900 540 Climbing Albuquerque Center
07:33AM 33.4867 -111.9461 346° North 143 165 3,400 540 Climbing Albuquerque Center
07:34AM 33.5133 -111.9808 313° West 141 162 4,100 720 Climbing Albuquerque Center
07:35AM 33.5392 -112.0150 312° West 138 159 4,900 660 Climbing Albuquerque Center
07:36AM 33.5706 -112.0511 316° Northwest 154 177 5,500 540 Climbing Albuquerque Center
07:37AM 33.5997 -112.0875 314° West 151 174 6,100 600 Climbing Albuquerque Center
07:38AM 33.6303 -112.1217 317° Northwest 151 174 6,800 600 Climbing Albuquerque Center
07:39AM 33.6594 -112.1567 315° West 149 171 7,400 600 Climbing Albuquerque Center
07:40AM 33.6897 -112.1911 317° Northwest 150 173 8,000 540 Climbing Albuquerque Center
07:42AM 33.7539 -112.2653 316° Northwest 151 174 9,200 480 Climbing Los Angeles Center
07:43AM 33.7831 -112.2978 317° Northwest 157 181 9,600 480 Climbing Albuquerque Center
07:44AM 33.8153 -112.3361 315° West 162 186 10,200 480 Climbing Albuquerque Center
07:45AM 33.8464 -112.3783 312° West 167 192 10,600 120 Climbing Albuquerque Center
07:46AM 33.8831 -112.4236 314° West 186 214 10,500 -60 Descending Albuquerque Center
07:47AM 33.9222 -112.4694 316° Northwest 195 224 10,500  Level Albuquerque Center
07:48AM 33.9606 -112.5164 315° West 196 226 10,500 -60 Level Albuquerque Center
07:49AM 34.0006 -112.5617 317° Northwest 196 226 10,400  Descending Albuquerque Center
07:50AM 34.0386 -112.6092 314° West 197 227 10,500  Climbing Albuquerque Center
07:51AM 34.0858 -112.6658 315° West 199 229 10,500  Level Albuquerque Center
07:52AM 34.1261 -112.7144 315° West 203 234 10,500 -60 Level Albuquerque Center
07:53AM 34.1689 -112.7631 317° Northwest 209 241 10,400 60 Descending Albuquerque Center
07:54AM 34.2119 -112.8086 319° Northwest 207 238 10,700 120 Climbing Albuquerque Center
07:55AM 34.2528 -112.8578 315° West 207 238 10,700  Level Albuquerque Center
07:56AM 34.2928 -112.9081 314° West 206 237 10,700  Level Albuquerque Center
07:57AM 34.3339 -112.9578 315° West 208 239 10,700  Level Albuquerque Center
07:58AM 34.3742 -113.0097 313° West 211 243 10,700  Level Albuquerque Center
07:59AM 34.4144 -113.0581 315° West 207 238 10,700  Level Albuquerque Center
08:00AM 34.4525 -113.1050 315° West 207 238 10,700  Level Albuquerque Center
08:01AM 34.4936 -113.1569 314° West 211 243 10,700  Level Albuquerque Center
08:02AM 34.5322 -113.2092 312° West 211 243 10,700 -60 Level Albuquerque Center
08:03AM 34.5733 -113.2581 316° Northwest 209 241 10,600  Descending Albuquerque Center
08:04AM 34.6125 -113.3078 314° West 207 238 10,700  Climbing Albuquerque Center
08:05AM 34.6506 -113.3575 313° West 205 236 10,600 -60 Descending Albuquerque Center
08:06AM 34.6911 -113.4069 315° West 205 236 10,600  Level Albuquerque Center
08:07AM 34.7292 -113.4575 312° West 204 235 10,700  Climbing Albuquerque Center
08:08AM 34.7681 -113.5056 315° West 201 231 10,700 -60 Level Albuquerque Center
08:09AM 34.8075 -113.5556 314° West 204 235 10,600 -60 Descending Albuquerque Center
08:10AM 34.8450 -113.6064 312° West 203 234 10,600  Level Albuquerque Center
08:11AM 34.8819 -113.6578 311° West 202 232 10,600 -60 Level Albuquerque Center
08:12AM 34.9211 -113.7067 314° West 202 232 10,500  Descending Albuquerque Center
08:13AM 34.9661 -113.7683 312° West 203 234 10,600  Climbing Albuquerque Center
08:14AM 35.0044 -113.8167 314° West 200 230 10,600 -60 Level Albuquerque Center
08:15AM 35.0425 -113.8689 312° West 202 232 10,500 -60 Descending Los Angeles Center
08:16AM 35.0797 -113.9217 311° West 205 236 10,500  Level Los Angeles Center
08:17AM 35.1161 -113.9703 312° West 200 230 10,500  Level Los Angeles Center
08:18AM 35.1528 -114.0225 311° West 201 231 10,500  Level Los Angeles Center
08:19AM 35.1903 -114.0714 313° West 198 228 10,500  Level Los Angeles Center
08:20AM 35.2300 -114.1200 315° West 200 230 10,500  Level Los Angeles Center
08:21AM 35.2667 -114.1717 311° West 201 231 10,500  Level Los Angeles Center
08:22AM 35.3019 -114.2225 310° West 199 229 10,500  Level Los Angeles Center
08:23AM 35.3394 -114.2733 312° West 199 229 10,500  Level Los Angeles Center
08:24AM 35.3761 -114.3244 311° West 199 229 10,500  Level Los Angeles Center
08:25AM 35.4119 -114.3756 311° West 199 229 10,500  Level Los Angeles Center
08:26AM 35.4469 -114.4267 310° West 197 227 10,500 -60 Level Los Angeles Center
08:27AM 35.4783 -114.4814 305° West 197 227 10,400 -60 Descending Los Angeles Center
08:28AM 35.5139 -114.5317 311° West 196 226 10,400  Level Los Angeles Center
08:29AM 35.5500 -114.5867 309° West 197 227 10,400  Level Los Angeles Center
08:30AM 35.5875 -114.6378 312° West 197 227 10,400 -180 Level Los Angeles Center
08:31AM 35.6242 -114.6864 313° West 195 224 10,100 -300 Descending Los Angeles Center
08:32AM 35.6714 -114.7236 327° Northwest 202 232 9,800 -420 Descending Los Angeles Center
08:33AM 35.7233 -114.7619 329° Northwest 205 236 9,300 -660 Descending Los Angeles Center
08:34AM 35.7717 -114.8042 325° Northwest 214 246 8,500 -780 Descending Los Angeles Center
08:35AM 35.8167 -114.8422 326° Northwest 214 246 7,900 -600 Descending Los Angeles Center
08:36AM 35.8644 -114.8781 329° Northwest 213 245 7,300 -660 Descending Los Angeles Center
08:37AM 35.9156 -114.9183 327° Northwest 206 237 6,600 -660 Descending Los Angeles Center
08:38AM 35.9597 -114.9536 327° Northwest 206 237 6,000 -600 Descending Los Angeles Center
08:39AM 36.0039 -114.9953 323° Northwest 188 216 5,500 -660 Descending Los Angeles Center
08:40AM 36.0478 -115.0286 328° Northwest 176 203 4,800 -720 Descending Los Angeles Center
08:41AM 36.0878 -115.0633 325° Northwest 177 204 4,100 -600 Descending Los Angeles Center
08:42AM 36.1289 -115.1028 322° Northwest 163 188 3,600 -300 Descending Los Angeles Center
08:43AM 36.1617 -115.1347 322° Northwest 150 173 3,500 -480 Descending Los Angeles Center
08:44AM 36.1858 -115.1667 313° West 121 139 2,700 -720 Descending Los Angeles Center
08:45AM 36.2100 -115.1919 320° Northwest 128 147 2,100 -600 Descending Los Angeles Center
08:47AM 36.2107 -115.1944 North  Level Estimated
08:54AM 36.2107 -115.1944 North  Level Estimated
08:55AM 36.2107 -115.1944 North  Level Estimated
08:56AM 36.2107 -115.1944 North  Level Estimated
08:57AM 36.2107 -115.1944 North  Level Estimated
08:58AM 36.2107 -115.1944 North  Level Estimated
08:59AM 36.2107 -115.1944 North  Level Estimated